sensor_id;sensor_type;location;lat;lon;timestamp;pressure;altitude;pressure_sealevel;temperature
61703;BMP280;47622;47.726;3.298;2023-06-10T00:00:13;98586.59;;;21.00
61703;BMP280;47622;47.726;3.298;2023-06-10T00:02:42;98582.81;;;20.94
61703;BMP280;47622;47.726;3.298;2023-06-10T00:05:08;98580.91;;;20.91
61703;BMP280;47622;47.726;3.298;2023-06-10T00:07:35;98582.84;;;20.80
61703;BMP280;47622;47.726;3.298;2023-06-10T00:10:05;98580.56;;;20.82
61703;BMP280;47622;47.726;3.298;2023-06-10T00:12:31;98579.06;;;20.74
61703;BMP280;47622;47.726;3.298;2023-06-10T00:15:05;98572.97;;;20.73
61703;BMP280;47622;47.726;3.298;2023-06-10T00:17:31;98579.81;;;20.71
61703;BMP280;47622;47.726;3.298;2023-06-10T00:19:59;98579.03;;;20.67
61703;BMP280;47622;47.726;3.298;2023-06-10T00:22:24;98572.22;;;20.58
61703;BMP280;47622;47.726;3.298;2023-06-10T00:24:55;98576.41;;;20.56
61703;BMP280;47622;47.726;3.298;2023-06-10T00:27:24;98578.31;;;20.55
61703;BMP280;47622;47.726;3.298;2023-06-10T00:29:53;98568.41;;;20.63
61703;BMP280;47622;47.726;3.298;2023-06-10T00:32:18;98568.41;;;20.63
61703;BMP280;47622;47.726;3.298;2023-06-10T00:34:44;98565.38;;;20.50
61703;BMP280;47622;47.726;3.298;2023-06-10T00:37:10;98567.69;;;20.48
61703;BMP280;47622;47.726;3.298;2023-06-10T00:39:35;98570.72;;;20.50
61703;BMP280;47622;47.726;3.298;2023-06-10T00:42:02;98561.59;;;20.51
61703;BMP280;47622;47.726;3.298;2023-06-10T00:44:32;98573.78;;;20.52
61703;BMP280;47622;47.726;3.298;2023-06-10T00:46:58;98560.81;;;20.54
61703;BMP280;47622;47.726;3.298;2023-06-10T00:49:25;98573.00;;;20.55
61703;BMP280;47622;47.726;3.298;2023-06-10T00:51:52;98567.66;;;20.55
61703;BMP280;47622;47.726;3.298;2023-06-10T00:54:18;98575.31;;;20.53
61703;BMP280;47622;47.726;3.298;2023-06-10T00:56:44;98571.13;;;20.52
61703;BMP280;47622;47.726;3.298;2023-06-10T00:59:12;98572.25;;;20.51
61703;BMP280;47622;47.726;3.298;2023-06-10T01:01:41;98573.41;;;20.57
61703;BMP280;47622;47.726;3.298;2023-06-10T01:04:08;98578.31;;;20.55
61703;BMP280;47622;47.726;3.298;2023-06-10T01:09:34;98579.50;;;20.44
61703;BMP280;47622;47.726;3.298;2023-06-10T01:12:20;98580.25;;;20.44
61703;BMP280;47622;47.726;3.298;2023-06-10T01:14:47;98574.16;;;20.47
61703;BMP280;47622;47.726;3.298;2023-06-10T01:17:14;98579.84;;;20.49
61703;BMP280;47622;47.726;3.298;2023-06-10T01:19:42;98567.69;;;20.45
61703;BMP280;47622;47.726;3.298;2023-06-10T01:22:09;98571.50;;;20.33
61703;BMP280;47622;47.726;3.298;2023-06-10T01:24:36;98581.38;;;20.29
61703;BMP280;47622;47.726;3.298;2023-06-10T01:27:10;98585.56;;;20.34
61703;BMP280;47622;47.726;3.298;2023-06-10T01:29:43;98603.47;;;20.33
61703;BMP280;47622;47.726;3.298;2023-06-10T01:32:34;98599.66;;;20.45
61703;BMP280;47622;47.726;3.298;2023-06-10T01:35:02;98602.31;;;20.41
61703;BMP280;47622;47.726;3.298;2023-06-10T01:37:28;98598.91;;;20.30
61703;BMP280;47622;47.726;3.298;2023-06-10T01:39:57;98591.66;;;20.34
61703;BMP280;47622;47.726;3.298;2023-06-10T01:42:24;98576.06;;;20.29
61703;BMP280;47622;47.726;3.298;2023-06-10T01:44:50;98574.16;;;20.33
61703;BMP280;47622;47.726;3.298;2023-06-10T01:47:15;98581.41;;;20.36
61703;BMP280;47622;47.726;3.298;2023-06-10T01:49:42;98582.19;;;20.26
61703;BMP280;47622;47.726;3.298;2023-06-10T01:52:07;98576.09;;;20.15
61703;BMP280;47622;47.726;3.298;2023-06-10T01:54:33;98587.88;;;20.21
61703;BMP280;47622;47.726;3.298;2023-06-10T01:57:01;98588.63;;;20.39
61703;BMP280;47622;47.726;3.298;2023-06-10T01:59:26;98593.59;;;20.23
61703;BMP280;47622;47.726;3.298;2023-06-10T02:01:52;98593.59;;;20.23
61703;BMP280;47622;47.726;3.298;2023-06-10T02:04:17;98595.09;;;20.24
61703;BMP280;47622;47.726;3.298;2023-06-10T02:06:45;98603.47;;;20.26
61703;BMP280;47622;47.726;3.298;2023-06-10T02:09:10;98603.47;;;20.26
61703;BMP280;47622;47.726;3.298;2023-06-10T02:11:36;98603.44;;;20.29
61703;BMP280;47622;47.726;3.298;2023-06-10T02:14:02;98594.34;;;20.34
61703;BMP280;47622;47.726;3.298;2023-06-10T02:16:27;98589.38;;;20.33
61703;BMP280;47622;47.726;3.298;2023-06-10T02:18:53;98589.78;;;20.27
61703;BMP280;47622;47.726;3.298;2023-06-10T02:21:20;98585.22;;;20.21
61703;BMP280;47622;47.726;3.298;2023-06-10T02:23:45;98587.47;;;20.12
61703;BMP280;47622;47.726;3.298;2023-06-10T02:26:11;98585.56;;;19.94
61703;BMP280;47622;47.726;3.298;2023-06-10T02:28:37;98586.31;;;19.91
61703;BMP280;47622;47.726;3.298;2023-06-10T02:31:03;98585.19;;;20.03
61703;BMP280;47622;47.726;3.298;2023-06-10T02:33:29;98588.66;;;20.11
61703;BMP280;47622;47.726;3.298;2023-06-10T02:35:55;98583.31;;;20.21
61703;BMP280;47622;47.726;3.298;2023-06-10T02:38:21;98574.94;;;20.23
61703;BMP280;47622;47.726;3.298;2023-06-10T02:40:46;98581.38;;;20.33
61703;BMP280;47622;47.726;3.298;2023-06-10T02:43:12;98575.69;;;20.38
61703;BMP280;47622;47.726;3.298;2023-06-10T02:45:38;98578.38;;;20.27
61703;BMP280;47622;47.726;3.298;2023-06-10T02:48:03;98579.13;;;20.13
61703;BMP280;47622;47.726;3.298;2023-06-10T02:50:30;98582.56;;;20.21
61703;BMP280;47622;47.726;3.298;2023-06-10T02:52:56;98581.78;;;20.17
61703;BMP280;47622;47.726;3.298;2023-06-10T02:55:21;98592.06;;;20.25
61703;BMP280;47622;47.726;3.298;2023-06-10T02:57:47;98591.28;;;20.28
61703;BMP280;47622;47.726;3.298;2023-06-10T03:00:13;98597.38;;;20.29
61703;BMP280;47622;47.726;3.298;2023-06-10T03:02:39;98600.06;;;20.15
61703;BMP280;47622;47.726;3.298;2023-06-10T03:05:06;98595.47;;;20.15
61703;BMP280;47622;47.726;3.298;2023-06-10T03:07:36;98597.75;;;20.13
61703;BMP280;47622;47.726;3.298;2023-06-10T03:10:01;98601.19;;;20.10
61703;BMP280;47622;47.726;3.298;2023-06-10T03:12:28;98602.69;;;20.08
61703;BMP280;47622;47.726;3.298;2023-06-10T03:14:54;98598.88;;;19.94
61703;BMP280;47622;47.726;3.298;2023-06-10T03:17:19;98605.72;;;19.95
61703;BMP280;47622;47.726;3.298;2023-06-10T03:19:45;98604.97;;;19.95
61703;BMP280;47622;47.726;3.298;2023-06-10T03:22:13;98599.25;;;19.82
61703;BMP280;47622;47.726;3.298;2023-06-10T03:24:39;98611.03;;;19.67
61703;BMP280;47622;47.726;3.298;2023-06-10T03:27:12;98616.34;;;19.67
61703;BMP280;47622;47.726;3.298;2023-06-10T03:29:38;98615.56;;;19.70
61703;BMP280;47622;47.726;3.298;2023-06-10T03:32:04;98614.81;;;19.73
61703;BMP280;47622;47.726;3.298;2023-06-10T03:34:30;98626.22;;;19.77
61703;BMP280;47622;47.726;3.298;2023-06-10T03:36:57;98625.06;;;19.71
61703;BMP280;47622;47.726;3.298;2023-06-10T03:39:23;98626.22;;;19.74
61703;BMP280;47622;47.726;3.298;2023-06-10T03:41:50;98620.13;;;19.73
61703;BMP280;47622;47.726;3.298;2023-06-10T03:44:15;98614.81;;;19.77
61703;BMP280;47622;47.726;3.298;2023-06-10T03:46:41;98619.38;;;19.69
61703;BMP280;47622;47.726;3.298;2023-06-10T03:49:07;98614.44;;;19.71
61703;BMP280;47622;47.726;3.298;2023-06-10T03:51:32;98616.34;;;19.74
61703;BMP280;47622;47.726;3.298;2023-06-10T03:53:58;98622.06;;;19.80
61703;BMP280;47622;47.726;3.298;2023-06-10T03:56:24;98627.38;;;19.80
61703;BMP280;47622;47.726;3.298;2023-06-10T03:58:50;98622.41;;;19.71
61703;BMP280;47622;47.726;3.298;2023-06-10T04:01:16;98618.59;;;19.58
61703;BMP280;47622;47.726;3.298;2023-06-10T04:03:43;98623.91;;;19.65
61703;BMP280;47622;47.726;3.298;2023-06-10T04:06:09;98625.03;;;19.64
61703;BMP280;47622;47.726;3.298;2023-06-10T04:08:34;98628.47;;;19.61
61703;BMP280;47622;47.726;3.298;2023-06-10T04:11:01;98622.00;;;19.66
61703;BMP280;47622;47.726;3.298;2023-06-10T04:13:27;98621.66;;;19.74
61703;BMP280;47622;47.726;3.298;2023-06-10T04:15:54;98626.56;;;19.65
61703;BMP280;47622;47.726;3.298;2023-06-10T04:18:22;98620.91;;;19.77
61703;BMP280;47622;47.726;3.298;2023-06-10T04:20:47;98623.53;;;19.70
61703;BMP280;47622;47.726;3.298;2023-06-10T04:23:13;98615.94;;;19.72
61703;BMP280;47622;47.726;3.298;2023-06-10T04:25:38;98617.09;;;19.71
61703;BMP280;47622;47.726;3.298;2023-06-10T04:28:06;98608.72;;;19.62
61703;BMP280;47622;47.726;3.298;2023-06-10T04:30:31;98608.72;;;19.73
61703;BMP280;47622;47.726;3.298;2023-06-10T04:32:57;98600.75;;;19.76
61703;BMP280;47622;47.726;3.298;2023-06-10T04:35:23;98597.38;;;19.83
61703;BMP280;47622;47.726;3.298;2023-06-10T04:37:48;98601.53;;;19.94
61703;BMP280;47622;47.726;3.298;2023-06-10T04:40:14;98592.78;;;19.90
61703;BMP280;47622;47.726;3.298;2023-06-10T04:42:42;98602.66;;;19.86
61703;BMP280;47622;47.726;3.298;2023-06-10T04:45:08;98610.28;;;19.77
61703;BMP280;47622;47.726;3.298;2023-06-10T04:47:34;98623.97;;;19.79
61703;BMP280;47622;47.726;3.298;2023-06-10T04:50:00;98616.38;;;19.85
61703;BMP280;47622;47.726;3.298;2023-06-10T04:52:26;98620.13;;;19.73
61703;BMP280;47622;47.726;3.298;2023-06-10T04:54:53;98611.78;;;19.75
61703;BMP280;47622;47.726;3.298;2023-06-10T04:57:19;98607.22;;;19.75
61703;BMP280;47622;47.726;3.298;2023-06-10T04:59:46;98616.34;;;19.78
61703;BMP280;47622;47.726;3.298;2023-06-10T05:02:11;98615.97;;;19.76
61703;BMP280;47622;47.726;3.298;2023-06-10T05:04:37;98619.38;;;19.76
61703;BMP280;47622;47.726;3.298;2023-06-10T05:07:03;98621.66;;;19.81
61703;BMP280;47622;47.726;3.298;2023-06-10T05:09:29;98628.16;;;19.80
61703;BMP280;47622;47.726;3.298;2023-06-10T05:11:55;98625.09;;;19.82
61703;BMP280;47622;47.726;3.298;2023-06-10T05:14:21;98623.22;;;19.82
61703;BMP280;47622;47.726;3.298;2023-06-10T05:16:47;98629.66;;;19.78
61703;BMP280;47622;47.726;3.298;2023-06-10T05:19:13;98627.03;;;19.88
61703;BMP280;47622;47.726;3.298;2023-06-10T05:21:38;98635.03;;;19.88
61703;BMP280;47622;47.726;3.298;2023-06-10T05:24:04;98631.59;;;19.88
61703;BMP280;47622;47.726;3.298;2023-06-10T05:26:31;98639.56;;;19.91
61703;BMP280;47622;47.726;3.298;2023-06-10T05:28:58;98635.38;;;19.90
61703;BMP280;47622;47.726;3.298;2023-06-10T05:31:24;98640.34;;;19.88
61703;BMP280;47622;47.726;3.298;2023-06-10T05:33:49;98636.88;;;19.77
61703;BMP280;47622;47.726;3.298;2023-06-10T05:36:15;98636.09;;;19.77
61703;BMP280;47622;47.726;3.298;2023-06-10T05:38:40;98636.13;;;19.80
61703;BMP280;47622;47.726;3.298;2023-06-10T05:41:06;98637.63;;;19.74
61703;BMP280;47622;47.726;3.298;2023-06-10T05:43:31;98652.09;;;19.80
61703;BMP280;47622;47.726;3.298;2023-06-10T05:45:57;98651.34;;;19.87
61703;BMP280;47622;47.726;3.298;2023-06-10T05:48:22;98655.16;;;19.82
61703;BMP280;47622;47.726;3.298;2023-06-10T05:50:48;98654.00;;;19.87
61703;BMP280;47622;47.726;3.298;2023-06-10T05:53:15;98652.13;;;19.87
61703;BMP280;47622;47.726;3.298;2023-06-10T05:55:46;98653.56;;;19.71
61703;BMP280;47622;47.726;3.298;2023-06-10T05:58:12;98660.47;;;19.82
61703;BMP280;47622;47.726;3.298;2023-06-10T06:00:41;98665.06;;;19.89
61703;BMP280;47622;47.726;3.298;2023-06-10T06:03:07;98660.47;;;19.82
61703;BMP280;47622;47.726;3.298;2023-06-10T06:05:36;98671.88;;;19.86
61703;BMP280;47622;47.726;3.298;2023-06-10T06:08:07;98663.16;;;19.93
61703;BMP280;47622;47.726;3.298;2023-06-10T06:10:33;98666.19;;;19.91
61703;BMP280;47622;47.726;3.298;2023-06-10T06:12:59;98671.13;;;19.97
61703;BMP280;47622;47.726;3.298;2023-06-10T06:15:25;98679.53;;;20.06
61703;BMP280;47622;47.726;3.298;2023-06-10T06:17:51;98678.81;;;20.19
61703;BMP280;47622;47.726;3.298;2023-06-10T06:20:20;98673.47;;;20.09
61703;BMP280;47622;47.726;3.298;2023-06-10T06:22:46;98679.53;;;20.13
61703;BMP280;47622;47.726;3.298;2023-06-10T06:25:11;98671.19;;;20.11
61703;BMP280;47622;47.726;3.298;2023-06-10T06:27:37;98673.44;;;20.12
61703;BMP280;47622;47.726;3.298;2023-06-10T06:30:03;98678.03;;;20.19
61703;BMP280;47622;47.726;3.298;2023-06-10T06:32:28;98679.19;;;20.25
61703;BMP280;47622;47.726;3.298;2023-06-10T06:34:54;98676.53;;;20.39
61703;BMP280;47622;47.726;3.298;2023-06-10T06:37:26;98686.03;;;20.37
61703;BMP280;47622;47.726;3.298;2023-06-10T06:39:52;98686.44;;;20.28
61703;BMP280;47622;47.726;3.298;2023-06-10T06:42:18;98684.91;;;20.27
61703;BMP280;47622;47.726;3.298;2023-06-10T06:44:44;98694.03;;;20.37
61703;BMP280;47622;47.726;3.298;2023-06-10T06:47:10;98684.19;;;20.41
61703;BMP280;47622;47.726;3.298;2023-06-10T06:49:35;98681.84;;;20.39
61703;BMP280;47622;47.726;3.298;2023-06-10T06:52:01;98684.56;;;20.57
61703;BMP280;47622;47.726;3.298;2023-06-10T06:54:27;98687.97;;;20.61
61703;BMP280;47622;47.726;3.298;2023-06-10T06:56:53;98684.91;;;20.66
61703;BMP280;47622;47.726;3.298;2023-06-10T06:59:18;98691.78;;;20.67
61703;BMP280;47622;47.726;3.298;2023-06-10T07:01:47;98687.19;;;20.68
61703;BMP280;47622;47.726;3.298;2023-06-10T07:04:15;98691.00;;;20.52
61703;BMP280;47622;47.726;3.298;2023-06-10T07:06:41;98689.47;;;20.58
61703;BMP280;47622;47.726;3.298;2023-06-10T07:09:07;98698.63;;;20.64
61703;BMP280;47622;47.726;3.298;2023-06-10T07:11:38;98687.56;;;20.55
61703;BMP280;47622;47.726;3.298;2023-06-10T07:14:03;98700.91;;;20.52
61703;BMP280;47622;47.726;3.298;2023-06-10T07:16:29;98709.25;;;20.50
61703;BMP280;47622;47.726;3.298;2023-06-10T07:18:54;98698.59;;;20.50
61703;BMP280;47622;47.726;3.298;2023-06-10T07:21:20;98704.31;;;20.38
61703;BMP280;47622;47.726;3.298;2023-06-10T07:23:45;98711.56;;;20.48
61703;BMP280;47622;47.726;3.298;2023-06-10T07:26:11;98706.63;;;20.64
61703;BMP280;47622;47.726;3.298;2023-06-10T07:28:41;98711.56;;;20.66
61703;BMP280;47622;47.726;3.298;2023-06-10T07:31:08;98716.50;;;20.68
61703;BMP280;47622;47.726;3.298;2023-06-10T07:33:33;98709.25;;;20.72
61703;BMP280;47622;47.726;3.298;2023-06-10T07:36:00;98718.41;;;20.67
61703;BMP280;47622;47.726;3.298;2023-06-10T07:38:26;98719.94;;;20.64
61703;BMP280;47622;47.726;3.298;2023-06-10T07:40:52;98714.59;;;20.61
61703;BMP280;47622;47.726;3.298;2023-06-10T07:43:17;98730.59;;;20.61
61703;BMP280;47622;47.726;3.298;2023-06-10T07:45:43;98729.84;;;20.53
61703;BMP280;47622;47.726;3.298;2023-06-10T07:48:10;98736.69;;;20.61
61703;BMP280;47622;47.726;3.298;2023-06-10T07:50:35;98737.44;;;20.66
61703;BMP280;47622;47.726;3.298;2023-06-10T07:53:01;98743.53;;;20.59
61703;BMP280;47622;47.726;3.298;2023-06-10T07:55:26;98732.88;;;20.62
61703;BMP280;47622;47.726;3.298;2023-06-10T07:57:53;98739.31;;;20.51
61703;BMP280;47622;47.726;3.298;2023-06-10T08:00:19;98743.91;;;20.72
61703;BMP280;47622;47.726;3.298;2023-06-10T08:02:44;98748.13;;;20.94
61703;BMP280;47622;47.726;3.298;2023-06-10T08:05:10;98740.47;;;21.10
61703;BMP280;47622;47.726;3.298;2023-06-10T08:07:36;98742.72;;;21.29
61703;BMP280;47622;47.726;3.298;2023-06-10T08:10:02;98746.50;;;21.39
61703;BMP280;47622;47.726;3.298;2023-06-10T08:12:29;98743.44;;;21.41
61703;BMP280;47622;47.726;3.298;2023-06-10T08:14:55;98751.81;;;21.53
61703;BMP280;47622;47.726;3.298;2023-06-10T08:17:21;98750.22;;;21.70
61703;BMP280;47622;47.726;3.298;2023-06-10T08:19:46;98757.81;;;21.79
61703;BMP280;47622;47.726;3.298;2023-06-10T08:22:12;98755.81;;;21.97
61703;BMP280;47622;47.726;3.298;2023-06-10T08:24:37;98758.03;;;22.13
61703;BMP280;47622;47.726;3.298;2023-06-10T08:27:03;98746.78;;;22.35
61703;BMP280;47622;47.726;3.298;2023-06-10T08:29:29;98757.31;;;22.60
61703;BMP280;47622;47.726;3.298;2023-06-10T08:31:57;98757.88;;;22.86
61703;BMP280;47622;47.726;3.298;2023-06-10T08:34:23;98757.88;;;22.86
61703;BMP280;47622;47.726;3.298;2023-06-10T08:36:49;98758.34;;;23.18
61703;BMP280;47622;47.726;3.298;2023-06-10T08:39:21;98766.38;;;23.52
61703;BMP280;47622;47.726;3.298;2023-06-10T08:42:11;98771.13;;;23.68
61703;BMP280;47622;47.726;3.298;2023-06-10T08:44:39;98772.81;;;23.89
61703;BMP280;47622;47.726;3.298;2023-06-10T08:47:13;98773.19;;;23.87
61703;BMP280;47622;47.726;3.298;2023-06-10T08:49:43;98772.72;;;23.65
61703;BMP280;47622;47.726;3.298;2023-06-10T08:52:13;98775.69;;;23.40
61703;BMP280;47622;47.726;3.298;2023-06-10T08:55:08;98782.09;;;23.09
61703;BMP280;47622;47.726;3.298;2023-06-10T08:57:30;98778.13;;;22.35
61703;BMP280;47622;47.726;3.298;2023-06-10T08:59:57;98782.06;;;22.13
61703;BMP280;47622;47.726;3.298;2023-06-10T09:02:27;98779.53;;;21.88
61703;BMP280;47622;47.726;3.298;2023-06-10T09:04:53;98781.88;;;21.75
61703;BMP280;47622;47.726;3.298;2023-06-10T09:07:19;98779.22;;;21.61
61703;BMP280;47622;47.726;3.298;2023-06-10T09:09:45;98785.72;;;21.60
61703;BMP280;47622;47.726;3.298;2023-06-10T09:12:12;98792.25;;;21.52
61703;BMP280;47622;47.726;3.298;2023-06-10T09:14:38;98786.50;;;21.60
61703;BMP280;47622;47.726;3.298;2023-06-10T09:17:05;98794.84;;;21.73
61703;BMP280;47622;47.726;3.298;2023-06-10T09:19:31;98789.47;;;21.77
61703;BMP280;47622;47.726;3.298;2023-06-10T09:21:58;98786.78;;;21.87
61703;BMP280;47622;47.726;3.298;2023-06-10T09:24:24;98803.56;;;21.88
61703;BMP280;47622;47.726;3.298;2023-06-10T09:26:50;98788.22;;;22.02
61703;BMP280;47622;47.726;3.298;2023-06-10T09:29:16;98796.53;;;22.22
61703;BMP280;47622;47.726;3.298;2023-06-10T09:31:43;98796.13;;;22.24
61703;BMP280;47622;47.726;3.298;2023-06-10T09:34:10;98797.63;;;22.32
61703;BMP280;47622;47.726;3.298;2023-06-10T09:36:36;98799.97;;;22.23
61703;BMP280;47622;47.726;3.298;2023-06-10T09:39:03;98793.03;;;22.29
61703;BMP280;47622;47.726;3.298;2023-06-10T09:41:32;98797.94;;;22.41
61703;BMP280;47622;47.726;3.298;2023-06-10T09:43:59;98794.91;;;22.43
61703;BMP280;47622;47.726;3.298;2023-06-10T09:46:30;98800.94;;;22.50
61703;BMP280;47622;47.726;3.298;2023-06-10T09:48:57;98805.88;;;22.52
61703;BMP280;47622;47.726;3.298;2023-06-10T09:51:23;98805.84;;;22.55
61703;BMP280;47622;47.726;3.298;2023-06-10T09:53:53;98803.63;;;22.50
61703;BMP280;47622;47.726;3.298;2023-06-10T09:56:19;98796.25;;;22.65
61703;BMP280;47622;47.726;3.298;2023-06-10T09:58:46;98807.28;;;22.67
61703;BMP280;47622;47.726;3.298;2023-06-10T10:01:15;98813.31;;;22.82
61703;BMP280;47622;47.726;3.298;2023-06-10T10:03:49;98807.97;;;23.23
61703;BMP280;47622;47.726;3.298;2023-06-10T10:06:16;98802.44;;;23.74
61703;BMP280;47622;47.726;3.298;2023-06-10T10:08:43;98809.63;;;24.11
61703;BMP280;47622;47.726;3.298;2023-06-10T10:11:10;98802.72;;;24.10
61703;BMP280;47622;47.726;3.298;2023-06-10T10:13:37;98804.84;;;24.49
61703;BMP280;47622;47.726;3.298;2023-06-10T10:16:19;98806.19;;;24.61
61703;BMP280;47622;47.726;3.298;2023-06-10T10:18:56;98805.81;;;24.86
61703;BMP280;47622;47.726;3.298;2023-06-10T10:21:29;98809.06;;;25.17
61703;BMP280;47622;47.726;3.298;2023-06-10T10:24:18;98814.00;;;24.99
61703;BMP280;47622;47.726;3.298;2023-06-10T10:26:50;98809.84;;;25.17
61703;BMP280;47622;47.726;3.298;2023-06-10T10:29:22;98809.34;;;25.03
61703;BMP280;47622;47.726;3.298;2023-06-10T10:31:51;98810.84;;;25.43
61703;BMP280;47622;47.726;3.298;2023-06-10T10:34:30;98816.78;;;25.15
61703;BMP280;47622;47.726;3.298;2023-06-10T10:37:01;98821.47;;;25.50
61703;BMP280;47622;47.726;3.298;2023-06-10T10:39:27;98810.97;;;26.12
61703;BMP280;47622;47.726;3.298;2023-06-10T10:41:54;98809.63;;;26.68
61703;BMP280;47622;47.726;3.298;2023-06-10T10:44:21;98812.84;;;26.92
61703;BMP280;47622;47.726;3.298;2023-06-10T10:46:50;98810.84;;;26.80
61703;BMP280;47622;47.726;3.298;2023-06-10T10:49:17;98817.72;;;26.97
61703;BMP280;47622;47.726;3.298;2023-06-10T10:54:29;98807.03;;;26.49
61703;BMP280;47622;47.726;3.298;2023-06-10T10:57:15;98809.66;;;26.36
61703;BMP280;47622;47.726;3.298;2023-06-10T10:59:54;98806.34;;;25.96
61703;BMP280;47622;47.726;3.298;2023-06-10T11:02:35;98810.84;;;25.83
61703;BMP280;47622;47.726;3.298;2023-06-10T11:05:04;98814.56;;;25.89
61703;BMP280;47622;47.726;3.298;2023-06-10T11:07:34;98821.06;;;25.52
61703;BMP280;47622;47.726;3.298;2023-06-10T11:10:09;98815.88;;;24.78
61703;BMP280;47622;47.726;3.298;2023-06-10T11:15:24;98812.19;;;24.18
61703;BMP280;47622;47.726;3.298;2023-06-10T11:23:44;98805.25;;;23.30
61703;BMP280;47622;47.726;3.298;2023-06-10T11:29:04;98805.41;;;23.50
61703;BMP280;47622;47.726;3.298;2023-06-10T11:31:38;98806.94;;;23.51
61703;BMP280;47622;47.726;3.298;2023-06-10T11:34:05;98808.03;;;23.87
61703;BMP280;47622;47.726;3.298;2023-06-10T11:36:33;98815.66;;;23.89
61703;BMP280;47622;47.726;3.298;2023-06-10T11:39:03;98809.41;;;23.99
61703;BMP280;47622;47.726;3.298;2023-06-10T11:41:29;98817.13;;;23.93
61703;BMP280;47622;47.726;3.298;2023-06-10T11:43:59;98813.44;;;24.10
61703;BMP280;47622;47.726;3.298;2023-06-10T11:46:26;98818.56;;;24.01
61703;BMP280;47622;47.726;3.298;2023-06-10T11:48:59;98811.78;;;23.93
61703;BMP280;47622;47.726;3.298;2023-06-10T11:51:26;98806.22;;;24.07
61703;BMP280;47622;47.726;3.298;2023-06-10T11:53:54;98810.38;;;24.12
61703;BMP280;47622;47.726;3.298;2023-06-10T11:58:55;98812.59;;;24.44
61703;BMP280;47622;47.726;3.298;2023-06-10T12:01:21;98815.88;;;24.78
61703;BMP280;47622;47.726;3.298;2023-06-10T12:03:55;98804.97;;;24.89
61703;BMP280;47622;47.726;3.298;2023-06-10T12:06:21;98799.59;;;25.32
61703;BMP280;47622;47.726;3.298;2023-06-10T12:08:47;98800.19;;;25.40
61703;BMP280;47622;47.726;3.298;2023-06-10T12:11:12;98804.47;;;25.37
61703;BMP280;47622;47.726;3.298;2023-06-10T12:13:45;98808.25;;;25.59
61703;BMP280;47622;47.726;3.298;2023-06-10T12:16:13;98799.56;;;25.72
61703;BMP280;47622;47.726;3.298;2023-06-10T12:18:39;98798.09;;;25.87
61703;BMP280;47622;47.726;3.298;2023-06-10T12:21:23;98799.44;;;25.95
61703;BMP280;47622;47.726;3.298;2023-06-10T12:24:10;98793.94;;;26.02
61703;BMP280;47622;47.726;3.298;2023-06-10T12:26:44;98795.16;;;25.97
61703;BMP280;47622;47.726;3.298;2023-06-10T12:29:20;98798.19;;;25.99
61703;BMP280;47622;47.726;3.298;2023-06-10T12:31:58;98803.41;;;27.00
61703;BMP280;47622;47.726;3.298;2023-06-10T12:34:38;98800.00;;;27.92
61703;BMP280;47622;47.726;3.298;2023-06-10T12:37:05;98793.91;;;28.60
61703;BMP280;47622;47.726;3.298;2023-06-10T12:39:33;98798.94;;;28.49
61703;BMP280;47622;47.726;3.298;2023-06-10T12:41:59;98797.25;;;28.30
61703;BMP280;47622;47.726;3.298;2023-06-10T12:44:33;98792.53;;;28.21
61703;BMP280;47622;47.726;3.298;2023-06-10T12:47:00;98792.97;;;28.07
61703;BMP280;47622;47.726;3.298;2023-06-10T12:49:26;98792.13;;;27.72
61703;BMP280;47622;47.726;3.298;2023-06-10T12:51:51;98794.47;;;27.45
61703;BMP280;47622;47.726;3.298;2023-06-10T12:54:17;98789.81;;;27.33
61703;BMP280;47622;47.726;3.298;2023-06-10T12:56:43;98785.72;;;27.28
61703;BMP280;47622;47.726;3.298;2023-06-10T12:59:08;98789.41;;;27.05
61703;BMP280;47622;47.726;3.298;2023-06-10T13:01:34;98788.09;;;26.97
61703;BMP280;47622;47.726;3.298;2023-06-10T13:03:59;98782.59;;;26.88
61703;BMP280;47622;47.726;3.298;2023-06-10T13:06:25;98789.31;;;26.80
61703;BMP280;47622;47.726;3.298;2023-06-10T13:08:51;98785.50;;;26.49
61703;BMP280;47622;47.726;3.298;2023-06-10T13:11:17;98777.41;;;26.65
61703;BMP280;47622;47.726;3.298;2023-06-10T13:13:42;98781.13;;;26.71
61703;BMP280;47622;47.726;3.298;2023-06-10T13:16:08;98774.38;;;26.63
61703;BMP280;47622;47.726;3.298;2023-06-10T13:18:34;98782.78;;;26.65
61703;BMP280;47622;47.726;3.298;2023-06-10T13:21:07;98775.16;;;26.47
61703;BMP280;47622;47.726;3.298;2023-06-10T13:23:33;98777.63;;;26.25
61703;BMP280;47622;47.726;3.298;2023-06-10T13:25:59;98773.06;;;26.06
61703;BMP280;47622;47.726;3.298;2023-06-10T13:28:25;98764.94;;;25.74
61703;BMP280;47622;47.726;3.298;2023-06-10T13:30:51;98767.13;;;25.62
61703;BMP280;47622;47.726;3.298;2023-06-10T13:33:16;98757.06;;;25.47
61703;BMP280;47622;47.726;3.298;2023-06-10T13:35:42;98760.63;;;25.24
61703;BMP280;47622;47.726;3.298;2023-06-10T13:38:08;98769.44;;;25.44
61703;BMP280;47622;47.726;3.298;2023-06-10T13:40:35;98757.72;;;25.54
61703;BMP280;47622;47.726;3.298;2023-06-10T13:43:01;98755.38;;;25.56
61703;BMP280;47622;47.726;3.298;2023-06-10T13:45:27;98752.28;;;25.38
61703;BMP280;47622;47.726;3.298;2023-06-10T13:47:53;98756.53;;;25.55
61703;BMP280;47622;47.726;3.298;2023-06-10T13:50:19;98761.78;;;25.79
61703;BMP280;47622;47.726;3.298;2023-06-10T13:52:44;98755.38;;;26.09
61703;BMP280;47622;47.726;3.298;2023-06-10T13:55:10;98764.19;;;25.37
61703;BMP280;47622;47.726;3.298;2023-06-10T13:57:35;98764.97;;;25.18
61703;BMP280;47622;47.726;3.298;2023-06-10T14:00:01;98768.53;;;25.31
61703;BMP280;47622;47.726;3.298;2023-06-10T14:02:27;98763.91;;;25.51
61703;BMP280;47622;47.726;3.298;2023-06-10T14:04:53;98764.50;;;25.95
61703;BMP280;47622;47.726;3.298;2023-06-10T14:07:18;98760.47;;;26.35
61703;BMP280;47622;47.726;3.298;2023-06-10T14:09:44;98755.03;;;26.68
61703;BMP280;47622;47.726;3.298;2023-06-10T14:12:10;98754.53;;;26.73
61703;BMP280;47622;47.726;3.298;2023-06-10T14:14:36;98758.09;;;27.11
61703;BMP280;47622;47.726;3.298;2023-06-10T14:17:02;98746.81;;;27.16
61703;BMP280;47622;47.726;3.298;2023-06-10T14:19:29;98748.97;;;27.21
61703;BMP280;47622;47.726;3.298;2023-06-10T14:21:55;98743.91;;;27.36
61703;BMP280;47622;47.726;3.298;2023-06-10T14:24:22;98755.00;;;27.26
61703;BMP280;47622;47.726;3.298;2023-06-10T14:26:48;98742.06;;;27.20
61703;BMP280;47622;47.726;3.298;2023-06-10T14:29:13;98739.16;;;27.28